sensor_id;sensor_type;location;lat;lon;timestamp;temperature;humidity
23618;DHT22;18207;32.078;34.818;2023-03-14T00:02:33;24.40;41.70
23618;DHT22;18207;32.078;34.818;2023-03-14T00:05:03;24.40;41.80
23618;DHT22;18207;32.078;34.818;2023-03-14T00:07:37;24.40;41.80
23618;DHT22;18207;32.078;34.818;2023-03-14T00:10:10;24.30;41.70
23618;DHT22;18207;32.078;34.818;2023-03-14T00:12:42;24.30;41.70
23618;DHT22;18207;32.078;34.818;2023-03-14T00:15:16;24.30;41.70
23618;DHT22;18207;32.078;34.818;2023-03-14T00:17:46;24.40;41.80
23618;DHT22;18207;32.078;34.818;2023-03-14T00:20:16;24.30;41.80
23618;DHT22;18207;32.078;34.818;2023-03-14T00:22:47;24.30;41.80
23618;DHT22;18207;32.078;34.818;2023-03-14T00:25:17;24.40;41.80
23618;DHT22;18207;32.078;34.818;2023-03-14T00:27:50;24.40;41.80
23618;DHT22;18207;32.078;34.818;2023-03-14T00:30:23;24.30;41.80
23618;DHT22;18207;32.078;34.818;2023-03-14T00:32:53;24.30;41.90
23618;DHT22;18207;32.078;34.818;2023-03-14T00:35:23;24.30;42.00
23618;DHT22;18207;32.078;34.818;2023-03-14T00:37:53;24.30;42.00
23618;DHT22;18207;32.078;34.818;2023-03-14T00:40:23;24.30;41.90
23618;DHT22;18207;32.078;34.818;2023-03-14T00:42:53;24.30;41.90
23618;DHT22;18207;32.078;34.818;2023-03-14T00:45:25;24.30;41.90
23618;DHT22;18207;32.078;34.818;2023-03-14T00:47:56;24.20;41.80
23618;DHT22;18207;32.078;34.818;2023-03-14T00:50:26;24.20;41.90
23618;DHT22;18207;32.078;34.818;2023-03-14T00:52:56;24.20;41.90
23618;DHT22;18207;32.078;34.818;2023-03-14T00:55:26;24.20;42.00
23618;DHT22;18207;32.078;34.818;2023-03-14T00:57:56;24.20;42.00
23618;DHT22;18207;32.078;34.818;2023-03-14T01:00:28;24.20;42.00
23618;DHT22;18207;32.078;34.818;2023-03-14T01:02:59;24.20;42.00
23618;DHT22;18207;32.078;34.818;2023-03-14T01:05:29;24.20;42.00
23618;DHT22;18207;32.078;34.818;2023-03-14T01:08:00;24.10;41.90
23618;DHT22;18207;32.078;34.818;2023-03-14T01:10:30;24.10;41.90
23618;DHT22;18207;32.078;34.818;2023-03-14T01:13:01;24.10;41.90
23618;DHT22;18207;32.078;34.818;2023-03-14T01:15:34;24.10;41.90
23618;DHT22;18207;32.078;34.818;2023-03-14T01:18:05;24.10;41.90
23618;DHT22;18207;32.078;34.818;2023-03-14T01:20:37;24.10;41.90
23618;DHT22;18207;32.078;34.818;2023-03-14T01:23:07;24.00;41.90
23618;DHT22;18207;32.078;34.818;2023-03-14T01:25:41;24.00;42.00
23618;DHT22;18207;32.078;34.818;2023-03-14T01:28:11;23.90;42.00
23618;DHT22;18207;32.078;34.818;2023-03-14T01:30:43;23.90;42.00
23618;DHT22;18207;32.078;34.818;2023-03-14T01:33:14;23.90;42.10
23618;DHT22;18207;32.078;34.818;2023-03-14T01:35:44;23.80;42.10
23618;DHT22;18207;32.078;34.818;2023-03-14T01:38:15;23.90;42.20
23618;DHT22;18207;32.078;34.818;2023-03-14T01:40:45;23.80;42.20
23618;DHT22;18207;32.078;34.818;2023-03-14T01:43:17;23.80;42.20
23618;DHT22;18207;32.078;34.818;2023-03-14T01:49:02;23.80;42.40
23618;DHT22;18207;32.078;34.818;2023-03-14T01:51:41;23.80;42.30
23618;DHT22;18207;32.078;34.818;2023-03-14T01:54:20;23.80;42.20
23618;DHT22;18207;32.078;34.818;2023-03-14T01:56:56;23.70;42.20
23618;DHT22;18207;32.078;34.818;2023-03-14T01:59:32;23.70;42.20
23618;DHT22;18207;32.078;34.818;2023-03-14T02:02:07;23.70;42.30
23618;DHT22;18207;32.078;34.818;2023-03-14T02:04:42;23.70;42.40
23618;DHT22;18207;32.078;34.818;2023-03-14T02:07:16;23.70;42.30
23618;DHT22;18207;32.078;34.818;2023-03-14T02:09:56;23.60;42.30
23618;DHT22;18207;32.078;34.818;2023-03-14T02:12:28;23.60;42.30
23618;DHT22;18207;32.078;34.818;2023-03-14T02:14:58;23.60;42.30
23618;DHT22;18207;32.078;34.818;2023-03-14T02:17:30;23.50;42.20
23618;DHT22;18207;32.078;34.818;2023-03-14T02:20:12;23.50;42.20
23618;DHT22;18207;32.078;34.818;2023-03-14T02:22:53;23.50;42.30
23618;DHT22;18207;32.078;34.818;2023-03-14T02:25:27;23.40;42.20
23618;DHT22;18207;32.078;34.818;2023-03-14T02:28:06;23.40;42.40
23618;DHT22;18207;32.078;34.818;2023-03-14T02:30:37;23.40;42.60
23618;DHT22;18207;32.078;34.818;2023-03-14T02:33:10;23.30;42.70
23618;DHT22;18207;32.078;34.818;2023-03-14T02:35:48;23.30;42.70
23618;DHT22;18207;32.078;34.818;2023-03-14T02:38:26;23.40;42.80
23618;DHT22;18207;32.078;34.818;2023-03-14T02:41:02;23.40;42.80
23618;DHT22;18207;32.078;34.818;2023-03-14T02:43:35;23.40;42.80
23618;DHT22;18207;32.078;34.818;2023-03-14T02:46:07;23.40;43.00
23618;DHT22;18207;32.078;34.818;2023-03-14T02:48:42;23.40;42.90
23618;DHT22;18207;32.078;34.818;2023-03-14T02:51:17;23.30;42.90
23618;DHT22;18207;32.078;34.818;2023-03-14T02:53:48;23.30;42.90
23618;DHT22;18207;32.078;34.818;2023-03-14T02:56:18;23.40;43.00
23618;DHT22;18207;32.078;34.818;2023-03-14T02:58:51;23.40;43.00
23618;DHT22;18207;32.078;34.818;2023-03-14T03:01:21;23.30;43.00
23618;DHT22;18207;32.078;34.818;2023-03-14T03:03:51;23.30;43.00
23618;DHT22;18207;32.078;34.818;2023-03-14T03:06:22;23.30;43.00
23618;DHT22;18207;32.078;34.818;2023-03-14T03:08:52;23.30;43.00
23618;DHT22;18207;32.078;34.818;2023-03-14T03:11:23;23.30;43.10
23618;DHT22;18207;32.078;34.818;2023-03-14T03:13:55;23.30;43.10
23618;DHT22;18207;32.078;34.818;2023-03-14T03:16:25;23.20;43.00
23618;DHT22;18207;32.078;34.818;2023-03-14T03:18:55;23.20;43.00
23618;DHT22;18207;32.078;34.818;2023-03-14T03:21:26;23.20;43.10
23618;DHT22;18207;32.078;34.818;2023-03-14T03:23:57;23.20;43.20
23618;DHT22;18207;32.078;34.818;2023-03-14T03:26:27;23.20;43.20
23618;DHT22;18207;32.078;34.818;2023-03-14T03:28:59;23.20;43.20
23618;DHT22;18207;32.078;34.818;2023-03-14T03:31:29;23.20;43.40
23618;DHT22;18207;32.078;34.818;2023-03-14T03:33:59;23.10;43.30
23618;DHT22;18207;32.078;34.818;2023-03-14T03:36:29;23.20;43.40
23618;DHT22;18207;32.078;34.818;2023-03-14T03:39:00;23.10;43.30
23618;DHT22;18207;32.078;34.818;2023-03-14T03:41:31;23.10;43.40
23618;DHT22;18207;32.078;34.818;2023-03-14T03:44:04;23.20;43.50
23618;DHT22;18207;32.078;34.818;2023-03-14T03:46:35;23.20;43.60
23618;DHT22;18207;32.078;34.818;2023-03-14T03:49:05;23.10;43.50
23618;DHT22;18207;32.078;34.818;2023-03-14T03:51:36;23.10;43.60
23618;DHT22;18207;32.078;34.818;2023-03-14T03:54:07;23.10;43.60
23618;DHT22;18207;32.078;34.818;2023-03-14T03:56:37;23.20;43.70
23618;DHT22;18207;32.078;34.818;2023-03-14T03:59:09;23.20;43.60
23618;DHT22;18207;32.078;34.818;2023-03-14T04:01:40;23.10;43.60
23618;DHT22;18207;32.078;34.818;2023-03-14T04:04:10;23.10;43.60
23618;DHT22;18207;32.078;34.818;2023-03-14T04:06:41;23.10;43.70
23618;DHT22;18207;32.078;34.818;2023-03-14T04:09:12;23.00;43.70
23618;DHT22;18207;32.078;34.818;2023-03-14T04:11:42;23.10;43.80
23618;DHT22;18207;32.078;34.818;2023-03-14T04:14:14;23.00;43.70
23618;DHT22;18207;32.078;34.818;2023-03-14T04:16:44;23.00;43.80
23618;DHT22;18207;32.078;34.818;2023-03-14T04:19:15;23.00;43.80
23618;DHT22;18207;32.078;34.818;2023-03-14T04:21:44;23.00;43.80
23618;DHT22;18207;32.078;34.818;2023-03-14T04:24:15;23.00;43.80
23618;DHT22;18207;32.078;34.818;2023-03-14T04:26:44;23.00;43.80
23618;DHT22;18207;32.078;34.818;2023-03-14T04:29:17;23.00;43.80
23618;DHT22;18207;32.078;34.818;2023-03-14T04:31:47;23.00;43.80
23618;DHT22;18207;32.078;34.818;2023-03-14T04:34:18;23.00;43.80
23618;DHT22;18207;32.078;34.818;2023-03-14T04:36:48;23.00;43.80
23618;DHT22;18207;32.078;34.818;2023-03-14T04:39:18;23.00;43.90
23618;DHT22;18207;32.078;34.818;2023-03-14T04:41:47;23.00;43.90
23618;DHT22;18207;32.078;34.818;2023-03-14T04:44:20;23.00;44.00
23618;DHT22;18207;32.078;34.818;2023-03-14T04:46:50;23.00;44.00
23618;DHT22;18207;32.078;34.818;2023-03-14T04:49:21;23.00;44.00
23618;DHT22;18207;32.078;34.818;2023-03-14T04:51:51;23.00;44.10
23618;DHT22;18207;32.078;34.818;2023-03-14T04:54:21;23.00;44.10
23618;DHT22;18207;32.078;34.818;2023-03-14T04:56:51;23.00;44.20
23618;DHT22;18207;32.078;34.818;2023-03-14T04:59:22;22.90;44.10
23618;DHT22;18207;32.078;34.818;2023-03-14T05:01:53;22.90;44.10
23618;DHT22;18207;32.078;34.818;2023-03-14T05:04:23;22.90;44.10
23618;DHT22;18207;32.078;34.818;2023-03-14T05:06:53;22.90;44.10
23618;DHT22;18207;32.078;34.818;2023-03-14T05:09:23;22.90;44.00
23618;DHT22;18207;32.078;34.818;2023-03-14T05:11:54;22.90;44.10
23618;DHT22;18207;32.078;34.818;2023-03-14T05:14:26;22.90;44.10
23618;DHT22;18207;32.078;34.818;2023-03-14T05:16:57;22.90;44.20
23618;DHT22;18207;32.078;34.818;2023-03-14T05:19:27;22.90;44.30
23618;DHT22;18207;32.078;34.818;2023-03-14T05:21:57;22.90;44.40
23618;DHT22;18207;32.078;34.818;2023-03-14T05:24:27;22.90;44.40
23618;DHT22;18207;32.078;34.818;2023-03-14T05:26:58;22.90;44.40
23618;DHT22;18207;32.078;34.818;2023-03-14T05:29:30;22.90;44.40
23618;DHT22;18207;32.078;34.818;2023-03-14T05:32:00;22.90;44.40
23618;DHT22;18207;32.078;34.818;2023-03-14T05:34:30;22.90;45.00
23618;DHT22;18207;32.078;34.818;2023-03-14T05:37:01;22.90;44.40
23618;DHT22;18207;32.078;34.818;2023-03-14T05:39:31;23.00;44.50
23618;DHT22;18207;32.078;34.818;2023-03-14T05:42:02;23.00;44.50
23618;DHT22;18207;32.078;34.818;2023-03-14T05:44:34;23.00;44.60
23618;DHT22;18207;32.078;34.818;2023-03-14T05:47:04;22.90;44.50
23618;DHT22;18207;32.078;34.818;2023-03-14T05:49:34;23.00;44.50
23618;DHT22;18207;32.078;34.818;2023-03-14T05:52:05;23.00;44.30
23618;DHT22;18207;32.078;34.818;2023-03-14T05:54:34;23.00;44.30
23618;DHT22;18207;32.078;34.818;2023-03-14T05:57:05;22.90;44.20
23618;DHT22;18207;32.078;34.818;2023-03-14T05:59:38;22.90;44.40
23618;DHT22;18207;32.078;34.818;2023-03-14T06:02:08;22.90;44.40
23618;DHT22;18207;32.078;34.818;2023-03-14T06:04:38;22.90;44.50
23618;DHT22;18207;32.078;34.818;2023-03-14T06:07:08;22.90;44.60
23618;DHT22;18207;32.078;34.818;2023-03-14T06:09:39;22.90;44.60
23618;DHT22;18207;32.078;34.818;2023-03-14T06:12:09;23.00;44.70
23618;DHT22;18207;32.078;34.818;2023-03-14T06:14:41;23.00;44.70
23618;DHT22;18207;32.078;34.818;2023-03-14T06:17:12;23.00;44.70
23618;DHT22;18207;32.078;34.818;2023-03-14T06:19:42;23.00;44.60
23618;DHT22;18207;32.078;34.818;2023-03-14T06:22:12;23.00;44.70
23618;DHT22;18207;32.078;34.818;2023-03-14T06:24:42;23.00;44.80
23618;DHT22;18207;32.078;34.818;2023-03-14T06:27:12;23.00;44.90
23618;DHT22;18207;32.078;34.818;2023-03-14T06:29:45;23.00;44.90
23618;DHT22;18207;32.078;34.818;2023-03-14T06:32:14;23.00;44.90
23618;DHT22;18207;32.078;34.818;2023-03-14T06:34:48;23.00;44.80
23618;DHT22;18207;32.078;34.818;2023-03-14T06:37:18;23.00;44.80
23618;DHT22;18207;32.078;34.818;2023-03-14T06:39:48;23.00;45.00
23618;DHT22;18207;32.078;34.818;2023-03-14T06:42:18;23.00;44.80
23618;DHT22;18207;32.078;34.818;2023-03-14T06:44:51;23.00;44.80
23618;DHT22;18207;32.078;34.818;2023-03-14T06:47:21;23.00;44.80
23618;DHT22;18207;32.078;34.818;2023-03-14T06:49:52;23.00;44.80
23618;DHT22;18207;32.078;34.818;2023-03-14T06:52:22;22.90;44.70
23618;DHT22;18207;32.078;34.818;2023-03-14T06:54:52;22.90;44.80
23618;DHT22;18207;32.078;34.818;2023-03-14T06:57:22;22.90;44.80
23618;DHT22;18207;32.078;34.818;2023-03-14T06:59:54;22.90;44.90
23618;DHT22;18207;32.078;34.818;2023-03-14T07:02:24;22.90;45.00
23618;DHT22;18207;32.078;34.818;2023-03-14T07:05:08;22.90;45.00
23618;DHT22;18207;32.078;34.818;2023-03-14T07:07:39;22.90;45.20
23618;DHT22;18207;32.078;34.818;2023-03-14T07:10:10;22.90;45.20
23618;DHT22;18207;32.078;34.818;2023-03-14T07:12:41;22.90;45.40
23618;DHT22;18207;32.078;34.818;2023-03-14T07:15:13;22.90;45.40
23618;DHT22;18207;32.078;34.818;2023-03-14T07:17:45;22.90;45.40
23618;DHT22;18207;32.078;34.818;2023-03-14T07:20:16;23.00;45.40
23618;DHT22;18207;32.078;34.818;2023-03-14T07:22:47;23.00;45.50
23618;DHT22;18207;32.078;34.818;2023-03-14T07:25:18;23.00;45.40
23618;DHT22;18207;32.078;34.818;2023-03-14T07:27:48;23.00;45.40
23618;DHT22;18207;32.078;34.818;2023-03-14T07:30:20;23.10;45.60
23618;DHT22;18207;32.078;34.818;2023-03-14T07:32:50;23.10;45.50
23618;DHT22;18207;32.078;34.818;2023-03-14T07:35:20;23.10;45.50
23618;DHT22;18207;32.078;34.818;2023-03-14T07:37:50;23.10;45.40
23618;DHT22;18207;32.078;34.818;2023-03-14T07:40:21;23.10;45.40
23618;DHT22;18207;32.078;34.818;2023-03-14T07:42:51;23.10;45.30
23618;DHT22;18207;32.078;34.818;2023-03-14T07:45:24;23.10;45.30
23618;DHT22;18207;32.078;34.818;2023-03-14T07:47:54;23.10;45.40
23618;DHT22;18207;32.078;34.818;2023-03-14T07:50:25;23.10;45.30
23618;DHT22;18207;32.078;34.818;2023-03-14T07:52:55;23.10;45.40
23618;DHT22;18207;32.078;34.818;2023-03-14T07:55:26;23.10;45.40
23618;DHT22;18207;32.078;34.818;2023-03-14T07:57:56;23.10;45.40
23618;DHT22;18207;32.078;34.818;2023-03-14T08:00:28;23.10;45.30
23618;DHT22;18207;32.078;34.818;2023-03-14T08:02:58;23.10;45.40
23618;DHT22;18207;32.078;34.818;2023-03-14T08:05:28;23.10;45.50
23618;DHT22;18207;32.078;34.818;2023-03-14T08:07:59;23.10;45.50
23618;DHT22;18207;32.078;34.818;2023-03-14T08:10:29;23.20;45.60
23618;DHT22;18207;32.078;34.818;2023-03-14T08:13:00;23.20;45.60
23618;DHT22;18207;32.078;34.818;2023-03-14T08:15:32;23.20;45.60
23618;DHT22;18207;32.078;34.818;2023-03-14T08:18:04;23.20;45.60
23618;DHT22;18207;32.078;34.818;2023-03-14T08:20:36;23.20;45.60
23618;DHT22;18207;32.078;34.818;2023-03-14T08:23:06;23.20;45.50
23618;DHT22;18207;32.078;34.818;2023-03-14T08:25:38;23.20;45.60
23618;DHT22;18207;32.078;34.818;2023-03-14T08:28:08;23.20;45.60
23618;DHT22;18207;32.078;34.818;2023-03-14T08:30:40;23.20;45.60
23618;DHT22;18207;32.078;34.818;2023-03-14T08:33:14;23.20;45.60
23618;DHT22;18207;32.078;34.818;2023-03-14T08:35:44;23.20;45.60
23618;DHT22;18207;32.078;34.818;2023-03-14T08:38:14;23.20;45.60
23618;DHT22;18207;32.078;34.818;2023-03-14T08:40:45;23.30;45.60
23618;DHT22;18207;32.078;34.818;2023-03-14T08:43:15;23.20;45.60
23618;DHT22;18207;32.078;34.818;2023-03-14T08:45:47;23.30;45.60
23618;DHT22;18207;32.078;34.818;2023-03-14T08:48:18;23.30;45.60
23618;DHT22;18207;32.078;34.818;2023-03-14T08:50:48;23.40;45.80
23618;DHT22;18207;32.078;34.818;2023-03-14T08:53:18;23.30;45.70
23618;DHT22;18207;32.078;34.818;2023-03-14T08:55:52;23.40;45.70
23618;DHT22;18207;32.078;34.818;2023-03-14T08:58:23;23.40;45.70
23618;DHT22;18207;32.078;34.818;2023-03-14T09:00:56;23.40;45.80
23618;DHT22;18207;32.078;34.818;2023-03-14T09:03:26;23.40;45.80
23618;DHT22;18207;32.078;34.818;2023-03-14T09:06:00;23.40;45.70
23618;DHT22;18207;32.078;34.818;2023-03-14T09:08:33;23.40;46.00
23618;DHT22;18207;32.078;34.818;2023-03-14T09:11:07;23.40;45.70
23618;DHT22;18207;32.078;34.818;2023-03-14T09:13:37;23.30;45.60
23618;DHT22;18207;32.078;34.818;2023-03-14T09:16:20;23.30;45.60
23618;DHT22;18207;32.078;34.818;2023-03-14T09:18:50;23.30;45.70
23618;DHT22;18207;32.078;34.818;2023-03-14T09:21:24;23.30;45.70
23618;DHT22;18207;32.078;34.818;2023-03-14T09:23:55;23.20;45.60
23618;DHT22;18207;32.078;34.818;2023-03-14T09:26:25;23.20;45.60
23618;DHT22;18207;32.078;34.818;2023-03-14T09:28:55;23.20;45.60
23618;DHT22;18207;32.078;34.818;2023-03-14T09:31:27;23.20;46.20
23618;DHT22;18207;32.078;34.818;2023-03-14T09:33:57;23.20;45.70
23618;DHT22;18207;32.078;34.818;2023-03-14T09:36:27;23.20;45.80
23618;DHT22;18207;32.078;34.818;2023-03-14T09:38:58;23.20;45.90
23618;DHT22;18207;32.078;34.818;2023-03-14T09:41:31;23.20;45.90
23618;DHT22;18207;32.078;34.818;2023-03-14T09:44:05;23.20;46.00
23618;DHT22;18207;32.078;34.818;2023-03-14T09:46:44;23.20;46.00
23618;DHT22;18207;32.078;34.818;2023-03-14T09:49:20;23.20;46.00
23618;DHT22;18207;32.078;34.818;2023-03-14T09:51:55;23.20;46.20
23618;DHT22;18207;32.078;34.818;2023-03-14T09:54:36;23.30;46.20
23618;DHT22;18207;32.078;34.818;2023-03-14T09:57:12;23.30;46.30
23618;DHT22;18207;32.078;34.818;2023-03-14T09:59:45;23.30;46.20
23618;DHT22;18207;32.078;34.818;2023-03-14T10:02:23;23.30;46.10
23618;DHT22;18207;32.078;34.818;2023-03-14T10:04:54;23.40;46.20
23618;DHT22;18207;32.078;34.818;2023-03-14T10:07:28;23.40;46.20
23618;DHT22;18207;32.078;34.818;2023-03-14T10:10:10;23.40;46.20
23618;DHT22;18207;32.078;34.818;2023-03-14T10:12:46;23.40;46.20
23618;DHT22;18207;32.078;34.818;2023-03-14T10:15:24;23.40;46.10
23618;DHT22;18207;32.078;34.818;2023-03-14T10:18:00;23.40;46.00
23618;DHT22;18207;32.078;34.818;2023-03-14T10:20:38;23.40;45.90
23618;DHT22;18207;32.078;34.818;2023-03-14T10:23:24;23.40;45.80
23618;DHT22;18207;32.078;34.818;2023-03-14T10:26:05;23.40;45.70
23618;DHT22;18207;32.078;34.818;2023-03-14T10:28:39;23.40;45.70
23618;DHT22;18207;32.078;34.818;2023-03-14T10:31:13;23.40;45.70
23618;DHT22;18207;32.078;34.818;2023-03-14T10:33:58;23.40;45.70
23618;DHT22;18207;32.078;34.818;2023-03-14T10:36:31;23.40;45.80
23618;DHT22;18207;32.078;34.818;2023-03-14T10:39:33;23.40;45.80
23618;DHT22;18207;32.078;34.818;2023-03-14T10:42:19;23.40;45.70
23618;DHT22;18207;32.078;34.818;2023-03-14T10:44:59;23.40;45.70
23618;DHT22;18207;32.078;34.818;2023-03-14T10:47:32;23.40;45.80
23618;DHT22;18207;32.078;34.818;2023-03-14T10:50:26;23.30;45.70
23618;DHT22;18207;32.078;34.818;2023-03-14T10:53:02;23.30;45.70
23618;DHT22;18207;32.078;34.818;2023-03-14T10:55:41;23.30;45.60
23618;DHT22;18207;32.078;34.818;2023-03-14T10:58:21;23.30;45.70
23618;DHT22;18207;32.078;34.818;2023-03-14T11:01:02;23.20;45.60
23618;DHT22;18207;32.078;34.818;2023-03-14T11:03:45;23.20;45.60
23618;DHT22;18207;32.078;34.818;2023-03-14T11:06:29;23.20;45.60
23618;DHT22;18207;32.078;34.818;2023-03-14T11:09:10;23.20;45.60
23618;DHT22;18207;32.078;34.818;2023-03-14T11:11:47;23.10;45.40
23618;DHT22;18207;32.078;34.818;2023-03-14T11:14:23;23.00;45.10
23618;DHT22;18207;32.078;34.818;2023-03-14T11:17:04;22.90;45.00
23618;DHT22;18207;32.078;34.818;2023-03-14T11:20:03;22.90;45.60
23618;DHT22;18207;32.078;34.818;2023-03-14T11:22:50;22.80;45.20
23618;DHT22;18207;32.078;34.818;2023-03-14T11:25:30;22.70;45.20
23618;DHT22;18207;32.078;34.818;2023-03-14T11:28:14;22.70;45.20
23618;DHT22;18207;32.078;34.818;2023-03-14T11:30:51;22.70;45.30
23618;DHT22;18207;32.078;34.818;2023-03-14T11:33:25;22.70;45.50
23618;DHT22;18207;32.078;34.818;2023-03-14T11:36:04;22.70;45.60
23618;DHT22;18207;32.078;34.818;2023-03-14T11:38:46;22.70;45.60
23618;DHT22;18207;32.078;34.818;2023-03-14T11:41:23;22.70;45.70
23618;DHT22;18207;32.078;34.818;2023-03-14T11:43:58;22.70;45.60
23618;DHT22;18207;32.078;34.818;2023-03-14T11:46:34;22.80;45.50
23618;DHT22;18207;32.078;34.818;2023-03-14T11:49:24;22.70;45.30
23618;DHT22;18207;32.078;34.818;2023-03-14T11:52:08;22.70;45.20
23618;DHT22;18207;32.078;34.818;2023-03-14T11:54:48;22.70;45.20
23618;DHT22;18207;32.078;34.818;2023-03-14T11:57:23;22.70;45.20
23618;DHT22;18207;32.078;34.818;2023-03-14T12:00:01;22.70;45.20
23618;DHT22;18207;32.078;34.818;2023-03-14T12:02:45;22.70;45.20
23618;DHT22;18207;32.078;34.818;2023-03-14T12:08:46;22.60;45.10
23618;DHT22;18207;32.078;34.818;2023-03-14T12:11:31;22.60;45.10
23618;DHT22;18207;32.078;34.818;2023-03-14T12:14:18;22.60;45.10
23618;DHT22;18207;32.078;34.818;2023-03-14T12:16:54;22.50;45.00
23618;DHT22;18207;32.078;34.818;2023-03-14T12:19:29;22.50;45.00
23618;DHT22;18207;32.078;34.818;2023-03-14T12:22:23;22.50;45.10
23618;DHT22;18207;32.078;34.818;2023-03-14T12:25:04;22.40;45.80
23618;DHT22;18207;32.078;34.818;2023-03-14T12:27:47;22.40;45.30
23618;DHT22;18207;32.078;34.818;2023-03-14T12:30:40;22.40;45.40
23618;DHT22;18207;32.078;34.818;2023-03-14T12:33:19;22.40;45.40
23618;DHT22;18207;32.078;34.818;2023-03-14T12:39:20;22.30;45.40
23618;DHT22;18207;32.078;34.818;2023-03-14T12:42:03;22.20;45.40
23618;DHT22;18207;32.078;34.818;2023-03-14T12:44:47;22.20;45.50
23618;DHT22;18207;32.078;34.818;2023-03-14T12:47:42;22.20;45.60
23618;DHT22;18207;32.078;34.818;2023-03-14T12:50:25;22.20;45.70
23618;DHT22;18207;32.078;34.818;2023-03-14T12:56:26;22.20;45.80
23618;DHT22;18207;32.078;34.818;2023-03-14T12:59:34;22.20;45.80
23618;DHT22;18207;32.078;34.818;2023-03-14T13:02:36;22.20;45.80
23618;DHT22;18207;32.078;34.818;2023-03-14T13:05:12;22.30;45.90
23618;DHT22;18207;32.078;34.818;2023-03-14T13:08:08;22.30;45.80
23618;DHT22;18207;32.078;34.818;2023-03-14T13:10:45;22.30;45.80
23618;DHT22;18207;32.078;34.818;2023-03-14T13:13:20;22.30;45.70
23618;DHT22;18207;32.078;34.818;2023-03-14T13:15:55;22.20;45.60
23618;DHT22;18207;32.078;34.818;2023-03-14T13:18:34;22.20;45.70
23618;DHT22;18207;32.078;34.818;2023-03-14T13:21:11;22.30;45.70
23618;DHT22;18207;32.078;34.818;2023-03-14T13:23:58;22.20;45.60
23618;DHT22;18207;32.078;34.818;2023-03-14T13:26:35;22.20;45.70
23618;DHT22;18207;32.078;34.818;2023-03-14T13:29:16;22.20;45.70
23618;DHT22;18207;32.078;34.818;2023-03-14T13:31:50;22.10;45.70
23618;DHT22;18207;32.078;34.818;2023-03-14T13:34:25;22.10;45.70
23618;DHT22;18207;32.078;34.818;2023-03-14T13:36:56;22.10;45.80
23618;DHT22;18207;32.078;34.818;2023-03-14T13:39:28;22.10;45.80
23618;DHT22;18207;32.078;34.818;2023-03-14T13:41:59;22.10;45.80
23618;DHT22;18207;32.078;34.818;2023-03-14T13:44:32;22.10;45.80
23618;DHT22;18207;32.078;34.818;2023-03-14T13:47:09;22.10;45.90
23618;DHT22;18207;32.078;34.818;2023-03-14T13:49:45;22.10;46.00
23618;DHT22;18207;32.078;34.818;2023-03-14T13:52:27;22.10;46.00
23618;DHT22;18207;32.078;34.818;2023-03-14T13:55:01;22.10;46.20
23618;DHT22;18207;32.078;34.818;2023-03-14T13:57:44;22.10;46.00
23618;DHT22;18207;32.078;34.818;2023-03-14T14:00:21;22.10;46.10
23618;DHT22;18207;32.078;34.818;2023-03-14T14:02:55;22.10;46.10
23618;DHT22;18207;32.078;34.818;2023-03-14T14:05:30;22.10;46.10
23618;DHT22;18207;32.078;34.818;2023-03-14T14:08:03;22.10;46.20
23618;DHT22;18207;32.078;34.818;2023-03-14T14:10:36;22.10;46.20
23618;DHT22;18207;32.078;34.818;2023-03-14T14:13:12;22.10;46.20
23618;DHT22;18207;32.078;34.818;2023-03-14T14:15:48;22.20;46.20
23618;DHT22;18207;32.078;34.818;2023-03-14T14:18:25;22.20;46.20
23618;DHT22;18207;32.078;34.818;2023-03-14T14:20:59;22.20;46.30
23618;DHT22;18207;32.078;34.818;2023-03-14T14:23:31;22.20;46.20
23618;DHT22;18207;32.078;34.818;2023-03-14T14:26:01;22.20;46.30
23618;DHT22;18207;32.078;34.818;2023-03-14T14:28:36;22.30;46.40
23618;DHT22;18207;32.078;34.818;2023-03-14T14:31:19;22.30;46.50
23618;DHT22;18207;32.078;34.818;2023-03-14T14:33:57;22.30;46.50
23618;DHT22;18207;32.078;34.818;2023-03-14T14:36:32;22.30;46.40
23618;DHT22;18207;32.078;34.818;2023-03-14T14:39:14;22.30;46.40
23618;DHT22;18207;32.078;34.818;2023-03-14T14:41:48;22.30;46.40
23618;DHT22;18207;32.078;34.818;2023-03-14T14:44:28;22.30;46.40
23618;DHT22;18207;32.078;34.818;2023-03-14T14:47:01;22.30;46.50
23618;DHT22;18207;32.078;34.818;2023-03-14T14:49:33;22.40;46.50
23618;DHT22;18207;32.078;34.818;2023-03-14T14:52:12;22.40;46.50
23618;DHT22;18207;32.078;34.818;2023-03-14T14:54:46;22.40;46.60
23618;DHT22;18207;32.078;34.818;2023-03-14T14:57:19;22.40;46.50
23618;DHT22;18207;32.078;34.818;2023-03-14T14:59:55;22.40;46.40
23618;DHT22;18207;32.078;34.818;2023-03-14T15:02:36;22.40;46.40
23618;DHT22;18207;32.078;34.818;2023-03-14T15:05:13;22.40;46.40
23618;DHT22;18207;32.078;34.818;2023-03-14T15:07:47;22.50;46.50
23618;DHT22;18207;32.078;34.818;2023-03-14T15:10:19;22.50;47.10
23618;DHT22;18207;32.078;34.818;2023-03-14T15:12:51;22.50;46.60
23618;DHT22;18207;32.078;34.818;2023-03-14T15:15:22;22.50;46.50
23618;DHT22;18207;32.078;34.818;2023-03-14T15:17:52;22.50;46.50
23618;DHT22;18207;32.078;34.818;2023-03-14T15:20:22;22.50;46.40
23618;DHT22;18207;32.078;34.818;2023-03-14T15:22:55;22.50;46.30
23618;DHT22;18207;32.078;34.818;2023-03-14T15:25:26;22.50;46.40
23618;DHT22;18207;32.078;34.818;2023-03-14T15:28:20;22.50;46.30
23618;DHT22;18207;32.078;34.818;2023-03-14T15:30:52;22.50;46.30
23618;DHT22;18207;32.078;34.818;2023-03-14T15:33:25;22.50;46.30
23618;DHT22;18207;32.078;34.818;2023-03-14T15:35:57;22.50;46.30
23618;DHT22;18207;32.078;34.818;2023-03-14T15:38:30;22.50;46.40
23618;DHT22;18207;32.078;34.818;2023-03-14T15:41:16;22.50;46.30
23618;DHT22;18207;32.078;34.818;2023-03-14T15:43:46;22.50;46.40
23618;DHT22;18207;32.078;34.818;2023-03-14T15:46:18;22.50;46.30
23618;DHT22;18207;32.078;34.818;2023-03-14T15:48:50;22.50;46.30
23618;DHT22;18207;32.078;34.818;2023-03-14T15:51:21;22.50;46.30
23618;DHT22;18207;32.078;34.818;2023-03-14T15:53:53;22.50;46.30
23618;DHT22;18207;32.078;34.818;2023-03-14T15:56:24;22.40;46.20
23618;DHT22;18207;32.078;34.818;2023-03-14T15:58:59;22.40;46.20
23618;DHT22;18207;32.078;34.818;2023-03-14T16:01:29;22.50;46.20
23618;DHT22;18207;32.078;34.818;2023-03-14T16:03:59;22.40;46.20
23618;DHT22;18207;32.078;34.818;2023-03-14T16:06:30;22.40;46.30
23618;DHT22;18207;32.078;34.818;2023-03-14T16:09:02;22.40;46.20
23618;DHT22;18207;32.078;34.818;2023-03-14T16:11:32;22.40;46.30